createdAt,value
2018-07-05T00:02:45.585Z,68.00
2018-07-05T00:06:00.127Z,67.80
2018-07-05T00:09:14.808Z,68.10
2018-07-05T00:12:29.366Z,68.40
2018-07-05T00:15:44.082Z,68.40
2018-07-05T00:18:58.594Z,68.60
2018-07-05T00:22:13.081Z,68.50
2018-07-05T00:25:27.821Z,68.50
2018-07-05T00:28:42.353Z,68.70
2018-07-05T00:31:56.833Z,69.10
2018-07-05T00:35:11.221Z,69.40
2018-07-05T00:38:25.657Z,70.00
2018-07-05T00:41:40.197Z,70.60
2018-07-05T00:44:54.634Z,70.60
2018-07-05T00:48:09.434Z,70.70
2018-07-05T00:51:24.002Z,70.80
2018-07-05T00:54:38.668Z,72.10
2018-07-05T00:57:53.129Z,71.20
2018-07-05T01:01:07.785Z,70.70
2018-07-05T01:04:22.469Z,70.70
2018-07-05T01:07:37.097Z,70.90
2018-07-05T01:10:51.540Z,70.90
2018-07-05T01:14:07.144Z,70.80
2018-07-05T01:17:21.514Z,70.50
2018-07-05T01:20:36.189Z,70.90
2018-07-05T01:23:50.714Z,71.10
2018-07-05T01:27:05.342Z,71.00
2018-07-05T01:30:20.161Z,71.00
2018-07-05T01:33:34.733Z,72.00
2018-07-05T01:36:49.438Z,72.20
2018-07-05T01:40:03.856Z,73.00
2018-07-05T01:43:18.459Z,73.30
2018-07-05T01:49:41.380Z,73.70
2018-07-05T01:52:57.322Z,73.80
2018-07-05T01:56:11.868Z,74.30
2018-07-05T02:02:34.837Z,74.20
2018-07-05T02:05:49.401Z,75.00
2018-07-05T02:12:12.591Z,75.10
2018-07-05T02:15:27.309Z,75.40
2018-07-05T02:18:41.978Z,75.70
2018-07-05T02:21:56.496Z,76.00
2018-07-05T02:25:10.985Z,76.20
2018-07-05T02:28:25.417Z,76.20
2018-07-05T02:31:40.128Z,76.90
2018-07-05T02:34:54.726Z,77.40
2018-07-05T02:38:15.146Z,77.80
2018-07-05T02:41:29.773Z,78.30
2018-07-05T02:44:44.370Z,78.10
2018-07-05T02:47:58.970Z,78.30
2018-07-05T02:51:13.474Z,78.30
2018-07-05T02:54:28.089Z,79.00
2018-07-05T02:57:42.497Z,78.00
2018-07-05T03:00:57.186Z,77.90
2018-07-05T03:04:11.629Z,78.00
2018-07-05T03:07:26.205Z,78.10
2018-07-05T03:10:40.662Z,78.10
2018-07-05T03:13:55.169Z,78.40
2018-07-05T03:17:09.659Z,78.40
2018-07-05T03:20:24.276Z,78.40
2018-07-05T03:23:38.934Z,78.50
2018-07-05T03:26:53.492Z,78.50
2018-07-05T03:30:08.022Z,79.00
2018-07-05T03:33:22.693Z,79.50
2018-07-05T03:36:37.322Z,79.80
2018-07-05T03:39:52.034Z,80.40
2018-07-05T03:43:06.513Z,80.50
2018-07-05T03:49:29.784Z,80.80
2018-07-05T03:52:44.210Z,80.60
2018-07-05T03:55:58.768Z,80.10
2018-07-05T03:59:13.357Z,79.80
2018-07-05T04:02:27.945Z,79.40
2018-07-05T04:08:51.141Z,79.20
2018-07-05T04:15:14.434Z,79.30
2018-07-05T04:18:29.037Z,79.30
2018-07-05T04:21:43.535Z,79.40
2018-07-05T04:24:58.044Z,79.50
2018-07-05T04:28:12.553Z,79.30
2018-07-05T04:34:35.603Z,78.90
2018-07-05T04:37:50.225Z,78.40
2018-07-05T04:41:04.937Z,77.70
2018-07-05T04:44:19.602Z,77.00
2018-07-05T04:47:34.145Z,77.60
2018-07-05T04:50:48.629Z,77.10
2018-07-05T04:54:03.259Z,77.30
2018-07-05T04:57:17.884Z,76.50
2018-07-05T05:00:32.362Z,75.60
2018-07-05T05:03:46.905Z,74.90
2018-07-05T05:07:01.332Z,74.00
2018-07-05T05:10:15.799Z,73.00
2018-07-05T05:19:47.550Z,60.20
2018-07-05T05:23:01.985Z,55.80
2018-07-05T05:26:16.768Z,51.10
2018-07-05T05:29:31.430Z,46.20
2018-07-05T05:32:45.962Z,43.10
2018-07-05T05:36:00.577Z,41.30
2018-07-05T05:39:15.109Z,39.00
2018-07-05T05:42:29.656Z,37.50
2018-07-05T05:45:44.157Z,36.90
2018-07-05T05:48:58.444Z,37.50
2018-07-05T05:52:13.020Z,36.70
2018-07-05T05:55:27.790Z,36.40
2018-07-05T05:58:42.489Z,36.40
2018-07-05T06:01:56.973Z,36.40
2018-07-05T06:05:11.701Z,35.70
2018-07-05T06:08:26.468Z,33.60
2018-07-05T06:11:41.070Z,32.70
2018-07-05T06:14:55.746Z,30.70
2018-07-05T06:18:10.353Z,30.30
2018-07-05T06:21:25.029Z,30.80
2018-07-05T06:24:39.555Z,29.60
2018-07-05T06:27:54.169Z,29.50
2018-07-05T06:31:08.753Z,28.50
2018-07-05T06:34:23.306Z,28.40
2018-07-05T06:37:38.041Z,28.40
2018-07-05T06:40:52.701Z,28.30
2018-07-05T06:44:07.428Z,28.30
2018-07-05T06:47:21.925Z,28.80
2018-07-05T06:50:36.482Z,28.00
2018-07-05T06:53:51.229Z,27.70
2018-07-05T06:57:05.775Z,27.30
2018-07-05T07:00:20.970Z,27.30
2018-07-05T07:03:35.605Z,27.90
2018-07-05T07:06:50.344Z,27.40
2018-07-05T07:16:21.974Z,27.80
2018-07-05T07:19:36.570Z,28.70
2018-07-05T07:22:51.308Z,28.60
2018-07-05T07:26:05.866Z,27.80
2018-07-05T07:29:20.530Z,27.70
2018-07-05T07:32:34.990Z,28.40
2018-07-05T07:35:54.022Z,28.90
2018-07-05T07:39:08.693Z,29.00
2018-07-05T07:42:10.897Z,29.10
2018-07-05T07:45:13.054Z,29.80
2018-07-05T07:48:15.221Z,29.40
2018-07-05T07:51:17.454Z,29.40
2018-07-05T07:54:19.565Z,28.80
2018-07-05T07:57:21.725Z,29.60
2018-07-05T08:00:23.962Z,28.80
2018-07-05T08:06:28.565Z,29.50
2018-07-05T08:09:30.734Z,29.40
2018-07-05T08:12:32.905Z,29.00
2018-07-05T08:15:35.067Z,29.30
2018-07-05T08:18:37.249Z,29.60
2018-07-05T08:21:39.421Z,29.70
2018-07-05T08:24:41.569Z,30.00
2018-07-05T08:27:43.741Z,30.80
2018-07-05T08:30:45.924Z,31.50
2018-07-05T08:33:48.114Z,30.60
2018-07-05T08:36:50.273Z,31.40
2018-07-05T08:39:52.442Z,30.90
2018-07-05T08:42:54.613Z,30.90
2018-07-05T08:45:56.785Z,31.00
2018-07-05T08:48:58.958Z,30.90
2018-07-05T08:52:01.117Z,31.30
2018-07-05T08:55:03.282Z,31.80
2018-07-05T08:58:05.468Z,31.50
2018-07-05T09:01:07.645Z,32.20
2018-07-05T09:04:09.813Z,32.80
2018-07-05T09:07:12.002Z,32.60
2018-07-05T09:13:16.582Z,34.20
2018-07-05T09:16:18.739Z,34.10
2018-07-05T09:19:20.910Z,34.20
2018-07-05T09:22:23.069Z,33.90
2018-07-05T09:28:27.633Z,34.30
2018-07-05T09:31:29.784Z,34.70
2018-07-05T09:34:31.950Z,34.80
2018-07-05T09:40:36.521Z,35.80
2018-07-05T09:43:38.701Z,36.10
2018-07-05T09:46:40.838Z,36.50
2018-07-05T09:49:43.020Z,37.00
2018-07-05T09:52:45.226Z,37.00
2018-07-05T09:55:47.366Z,37.50
2018-07-05T09:58:49.540Z,37.80
2018-07-05T10:01:51.696Z,39.10
2018-07-05T10:04:53.871Z,38.70
2018-07-05T10:07:56.045Z,38.90
2018-07-05T10:10:58.225Z,39.10
2018-07-05T10:14:00.638Z,39.40
2018-07-05T10:17:02.790Z,39.50
2018-07-05T10:20:04.952Z,39.20
2018-07-05T10:23:07.116Z,39.40
2018-07-05T10:26:09.290Z,40.50
2018-07-05T10:29:23.897Z,40.20
2018-07-05T10:32:38.466Z,40.30
2018-07-05T10:38:43.277Z,40.20
2018-07-05T10:41:58.037Z,40.50
2018-07-05T10:45:12.497Z,40.30
2018-07-05T10:48:27.149Z,39.90
2018-07-05T10:51:46.213Z,40.10
2018-07-05T10:55:00.802Z,40.60
2018-07-05T10:58:15.361Z,39.70
2018-07-05T11:01:30.105Z,40.00
2018-07-05T11:04:44.778Z,41.70
2018-07-05T11:07:59.549Z,42.10
2018-07-05T11:11:14.348Z,42.60
2018-07-05T11:14:28.983Z,41.80
2018-07-05T11:17:43.732Z,42.70
2018-07-05T11:20:58.258Z,41.70
2018-07-05T11:24:12.849Z,42.00
2018-07-05T11:27:27.486Z,42.20
2018-07-05T11:30:41.937Z,41.70
2018-07-05T11:33:56.333Z,41.80
2018-07-05T11:37:11.081Z,42.30
2018-07-05T11:40:25.553Z,42.60
2018-07-05T11:43:40.095Z,42.10
2018-07-05T11:46:54.556Z,42.00
2018-07-05T11:50:08.989Z,42.90
2018-07-05T11:53:23.589Z,43.20
2018-07-05T11:56:38.113Z,43.70
2018-07-05T11:59:52.777Z,43.60
2018-07-05T12:03:07.365Z,44.20
2018-07-05T12:06:21.865Z,44.20
2018-07-05T12:12:44.889Z,43.90
2018-07-05T12:15:59.354Z,43.80
2018-07-05T12:19:14.237Z,43.10
2018-07-05T12:22:28.856Z,43.60
2018-07-05T12:25:43.557Z,43.90
2018-07-05T12:28:58.221Z,43.70
2018-07-05T12:32:12.822Z,44.00
2018-07-05T12:38:36.066Z,43.20
2018-07-05T12:41:50.741Z,43.60
2018-07-05T12:45:05.392Z,43.40
2018-07-05T12:48:20.164Z,44.10
2018-07-05T12:51:34.809Z,43.30
2018-07-05T12:54:49.297Z,43.50
2018-07-05T12:58:03.949Z,43.20
2018-07-05T13:01:18.629Z,43.40
2018-07-05T13:04:33.266Z,42.90
2018-07-05T13:07:47.894Z,43.50
2018-07-05T13:11:02.418Z,43.80
2018-07-05T13:17:25.561Z,45.70
2018-07-05T13:20:40.103Z,45.60
2018-07-05T13:23:54.894Z,45.80
2018-07-05T13:27:09.367Z,45.90
2018-07-05T13:30:24.093Z,46.60
2018-07-05T13:33:38.872Z,47.40
2018-07-05T13:36:53.432Z,48.10
2018-07-05T13:40:08.117Z,48.50
2018-07-05T13:43:22.821Z,48.50
2018-07-05T13:46:37.353Z,49.00
2018-07-05T13:53:00.438Z,49.20
2018-07-05T13:56:15.066Z,49.30
2018-07-05T13:59:29.597Z,48.90
2018-07-05T14:02:44.201Z,48.90
2018-07-05T14:05:58.717Z,48.50
2018-07-05T14:09:13.389Z,49.10
2018-07-05T14:15:56.411Z,51.10
2018-07-05T14:19:11.173Z,51.40
2018-07-05T14:22:25.800Z,52.30
2018-07-05T14:25:40.288Z,51.70
2018-07-05T14:28:54.909Z,52.00
2018-07-05T14:32:09.537Z,51.70
2018-07-05T14:35:24.073Z,50.80
2018-07-05T14:38:42.744Z,51.00
2018-07-05T14:41:57.459Z,50.30
2018-07-05T14:45:12.448Z,49.70
2018-07-05T14:48:27.605Z,49.30
2018-07-05T14:51:42.653Z,50.30
2018-07-05T14:54:57.230Z,50.40
2018-07-05T14:58:11.997Z,49.90
2018-07-05T15:01:26.761Z,50.00
2018-07-05T15:04:41.310Z,50.70
2018-07-05T15:07:55.781Z,51.20
2018-07-05T15:11:11.611Z,50.10
2018-07-05T15:14:26.098Z,49.90
2018-07-05T15:20:49.205Z,49.10
2018-07-05T15:24:03.673Z,48.10
2018-07-05T15:27:18.126Z,48.20
2018-07-05T15:30:32.901Z,48.00
2018-07-05T15:33:47.563Z,48.70
2018-07-05T15:37:02.103Z,48.70
2018-07-05T15:40:16.793Z,48.40
2018-07-05T15:43:31.315Z,48.70
2018-07-05T15:46:45.946Z,49.10
2018-07-05T15:50:00.465Z,47.70
2018-07-05T15:53:15.290Z,48.20
2018-07-05T15:56:29.982Z,48.70
2018-07-05T15:59:44.519Z,48.20
2018-07-05T16:02:59.234Z,48.60
2018-07-05T16:06:13.990Z,48.50
2018-07-05T16:09:28.678Z,48.70
2018-07-05T16:12:43.165Z,48.60
2018-07-05T16:19:06.296Z,49.00
2018-07-05T16:22:21.080Z,49.60
2018-07-05T16:25:35.595Z,49.70
2018-07-05T16:28:50.649Z,49.90
2018-07-05T16:32:05.449Z,50.20
2018-07-05T16:35:19.869Z,50.40
2018-07-05T16:38:34.560Z,50.50
2018-07-05T16:41:49.261Z,50.50
2018-07-05T16:45:03.711Z,50.70
2018-07-05T16:48:18.262Z,51.30
2018-07-05T16:51:32.872Z,51.50
2018-07-05T16:54:47.411Z,51.70
2018-07-05T16:58:01.969Z,51.60
2018-07-05T17:01:16.923Z,51.60
2018-07-05T17:04:31.589Z,53.50
2018-07-05T17:07:46.239Z,53.50
2018-07-05T17:11:01.026Z,53.90
2018-07-05T17:14:15.673Z,54.10
2018-07-05T17:17:30.318Z,54.50
2018-07-05T17:20:45.054Z,55.10
2018-07-05T17:23:59.722Z,55.20
2018-07-05T17:27:14.242Z,55.20
2018-07-05T17:30:28.850Z,54.80
2018-07-05T17:33:44.390Z,54.80
2018-07-05T17:36:58.989Z,54.90
2018-07-05T17:40:13.706Z,54.80
2018-07-05T17:43:28.216Z,55.10
2018-07-05T17:46:42.688Z,55.50
2018-07-05T17:49:57.344Z,55.80
2018-07-05T17:53:11.907Z,55.90
2018-07-05T17:56:26.657Z,56.40
2018-07-05T17:59:41.246Z,56.50
2018-07-05T18:02:55.655Z,56.60
2018-07-05T18:09:18.677Z,57.10
2018-07-05T18:12:33.290Z,57.40
2018-07-05T18:18:56.289Z,57.30
2018-07-05T18:22:11.365Z,57.40
2018-07-05T18:25:25.861Z,57.40
2018-07-05T18:28:40.325Z,56.90
2018-07-05T18:31:54.961Z,56.40
2018-07-05T18:35:09.594Z,56.40
2018-07-05T18:38:24.273Z,56.40
2018-07-05T18:41:38.773Z,56.40
2018-07-05T18:44:53.493Z,56.90
2018-07-05T18:48:08.189Z,56.50
2018-07-05T18:51:22.653Z,56.70
2018-07-05T18:54:37.304Z,56.70
2018-07-05T18:57:51.789Z,56.70
2018-07-05T19:01:06.402Z,56.60
2018-07-05T19:04:21.196Z,56.80
2018-07-05T19:07:35.770Z,56.50
2018-07-05T19:10:50.472Z,56.50
2018-07-05T19:14:05.065Z,56.50
2018-07-05T19:17:19.627Z,56.40
2018-07-05T19:20:34.308Z,56.30
2018-07-05T19:23:48.801Z,56.00
2018-07-05T19:30:12.074Z,55.90
2018-07-05T19:33:26.639Z,56.00
2018-07-05T19:36:41.234Z,56.00
2018-07-05T19:39:55.789Z,55.90
2018-07-05T19:43:10.453Z,55.70
2018-07-05T19:46:25.128Z,55.80
2018-07-05T19:49:39.757Z,55.60
2018-07-05T19:52:54.341Z,55.60
2018-07-05T19:56:09.005Z,55.60
2018-07-05T19:59:23.465Z,55.70
2018-07-05T20:02:38.097Z,55.90
2018-07-05T20:12:10.085Z,57.50
2018-07-05T20:15:24.590Z,59.00
2018-07-05T20:18:39.162Z,59.90
2018-07-05T20:21:53.817Z,61.20
2018-07-05T20:25:08.478Z,62.50
2018-07-05T20:28:23.257Z,63.70
2018-07-05T20:31:37.813Z,64.70
2018-07-05T20:34:52.371Z,65.70
2018-07-05T20:38:06.935Z,66.60
2018-07-05T20:41:21.472Z,67.50
2018-07-05T20:44:36.258Z,68.30
2018-07-05T20:47:50.925Z,69.20
2018-07-05T20:51:05.469Z,70.10
2018-07-05T20:54:20.170Z,70.80
2018-07-05T20:57:34.945Z,71.30
2018-07-05T21:00:49.466Z,71.90
2018-07-05T21:04:04.254Z,72.50
2018-07-05T21:07:18.832Z,72.90
2018-07-05T21:10:33.454Z,73.70
2018-07-05T21:13:48.030Z,74.10
2018-07-05T21:17:02.769Z,74.80
2018-07-05T21:20:17.257Z,74.70
2018-07-05T21:23:31.804Z,75.40
2018-07-05T21:26:46.256Z,75.90
2018-07-05T21:30:00.813Z,76.20
2018-07-05T21:33:15.422Z,76.40
2018-07-05T21:36:29.961Z,76.80
2018-07-05T21:39:44.633Z,77.00
2018-07-05T21:42:59.170Z,77.30
2018-07-05T21:46:13.805Z,77.30
2018-07-05T21:49:28.301Z,77.50
2018-07-05T21:52:42.798Z,77.70
2018-07-05T21:59:05.757Z,78.30
2018-07-05T22:02:20.158Z,78.60
2018-07-05T22:05:34.710Z,78.60
2018-07-05T22:08:49.468Z,78.70
2018-07-05T22:12:04.125Z,79.00
2018-07-05T22:18:32.980Z,79.40
2018-07-05T22:21:53.266Z,79.50
2018-07-05T22:25:13.516Z,80.00
2018-07-05T22:31:42.258Z,80.40
2018-07-05T22:34:56.897Z,80.50
2018-07-05T22:41:20.125Z,80.70
2018-07-05T22:44:34.683Z,81.80
2018-07-05T22:47:49.373Z,81.30
2018-07-05T22:51:04.014Z,81.20
2018-07-05T22:54:18.626Z,81.50
2018-07-05T23:00:41.735Z,82.20
2018-07-05T23:03:56.834Z,82.70
2018-07-05T23:07:11.617Z,82.90
2018-07-05T23:10:26.082Z,83.30
2018-07-05T23:13:40.714Z,82.80
2018-07-05T23:16:55.257Z,83.10
2018-07-05T23:20:09.738Z,83.30
2018-07-05T23:23:24.402Z,83.50
2018-07-05T23:26:38.849Z,83.40
2018-07-05T23:29:53.425Z,83.50
2018-07-05T23:33:07.853Z,83.60
2018-07-05T23:36:22.361Z,83.70
2018-07-05T23:39:36.974Z,83.90
2018-07-05T23:42:51.433Z,83.90
2018-07-05T23:46:07.246Z,84.00
2018-07-05T23:49:21.889Z,84.00
2018-07-05T23:52:36.401Z,84.30
2018-07-05T23:55:50.845Z,84.40
2018-07-05T23:59:05.437Z,84.90
